sensor_id;sensor_type;location;lat;lon;timestamp;temperature;humidity
52979;DHT22;51106;53.186;6.598;2022-08-01T00:01:03;18.00;99.90
52979;DHT22;51106;53.186;6.598;2022-08-01T00:03:05;18.00;99.90
52979;DHT22;51106;53.186;6.598;2022-08-01T00:05:08;18.00;99.90
52979;DHT22;51106;53.186;6.598;2022-08-01T00:07:10;18.00;99.90
52979;DHT22;51106;53.186;6.598;2022-08-01T00:09:12;18.00;99.90
52979;DHT22;51106;53.186;6.598;2022-08-01T00:11:25;18.00;99.90
52979;DHT22;51106;53.186;6.598;2022-08-01T00:13:27;18.00;99.90
52979;DHT22;51106;53.186;6.598;2022-08-01T00:15:29;18.00;99.90
52979;DHT22;51106;53.186;6.598;2022-08-01T00:17:31;18.00;99.90
52979;DHT22;51106;53.186;6.598;2022-08-01T00:19:33;18.00;99.90
52979;DHT22;51106;53.186;6.598;2022-08-01T00:21:35;17.90;99.90
52979;DHT22;51106;53.186;6.598;2022-08-01T00:23:37;18.00;99.90
52979;DHT22;51106;53.186;6.598;2022-08-01T00:25:39;18.00;99.90
52979;DHT22;51106;53.186;6.598;2022-08-01T00:27:42;18.00;99.90
52979;DHT22;51106;53.186;6.598;2022-08-01T00:29:44;18.00;99.90
52979;DHT22;51106;53.186;6.598;2022-08-01T00:32:06;18.00;99.90
52979;DHT22;51106;53.186;6.598;2022-08-01T00:34:11;18.00;99.90
52979;DHT22;51106;53.186;6.598;2022-08-01T00:36:13;18.00;99.90
52979;DHT22;51106;53.186;6.598;2022-08-01T00:38:15;18.00;99.90
52979;DHT22;51106;53.186;6.598;2022-08-01T00:40:17;18.00;99.90
52979;DHT22;51106;53.186;6.598;2022-08-01T00:42:19;17.90;99.90
52979;DHT22;51106;53.186;6.598;2022-08-01T00:44:21;17.90;99.90
52979;DHT22;51106;53.186;6.598;2022-08-01T00:46:26;17.90;99.90
52979;DHT22;51106;53.186;6.598;2022-08-01T00:48:28;18.00;99.90
52979;DHT22;51106;53.186;6.598;2022-08-01T00:50:32;17.90;99.90
52979;DHT22;51106;53.186;6.598;2022-08-01T00:52:34;17.90;99.90
52979;DHT22;51106;53.186;6.598;2022-08-01T00:54:36;18.00;99.90
52979;DHT22;51106;53.186;6.598;2022-08-01T00:56:38;17.90;99.90
52979;DHT22;51106;53.186;6.598;2022-08-01T00:58:40;17.90;99.90
52979;DHT22;51106;53.186;6.598;2022-08-01T01:00:46;17.90;99.90
52979;DHT22;51106;53.186;6.598;2022-08-01T01:02:55;17.90;99.90
52979;DHT22;51106;53.186;6.598;2022-08-01T01:04:57;17.90;99.90
52979;DHT22;51106;53.186;6.598;2022-08-01T01:14:45;17.80;99.90
52979;DHT22;51106;53.186;6.598;2022-08-01T01:16:53;17.80;99.90
52979;DHT22;51106;53.186;6.598;2022-08-01T01:18:57;17.80;99.90
52979;DHT22;51106;53.186;6.598;2022-08-01T01:23:34;17.80;99.90
52979;DHT22;51106;53.186;6.598;2022-08-01T01:29:58;17.80;99.90
52979;DHT22;51106;53.186;6.598;2022-08-01T01:32:06;17.70;99.90
52979;DHT22;51106;53.186;6.598;2022-08-01T01:34:11;17.70;99.90
52979;DHT22;51106;53.186;6.598;2022-08-01T01:36:15;17.70;99.90
52979;DHT22;51106;53.186;6.598;2022-08-01T01:38:20;17.70;99.90
52979;DHT22;51106;53.186;6.598;2022-08-01T01:40:23;17.60;99.90
52979;DHT22;51106;53.186;6.598;2022-08-01T01:42:27;17.60;99.90
52979;DHT22;51106;53.186;6.598;2022-08-01T01:44:31;17.50;99.90
52979;DHT22;51106;53.186;6.598;2022-08-01T01:46:35;17.50;99.90
52979;DHT22;51106;53.186;6.598;2022-08-01T01:48:44;17.60;99.90
52979;DHT22;51106;53.186;6.598;2022-08-01T01:50:48;17.50;99.90
52979;DHT22;51106;53.186;6.598;2022-08-01T01:52:52;17.50;99.90
52979;DHT22;51106;53.186;6.598;2022-08-01T01:54:56;17.50;99.90
52979;DHT22;51106;53.186;6.598;2022-08-01T01:57:00;17.50;99.90
52979;DHT22;51106;53.186;6.598;2022-08-01T01:59:04;17.50;99.90
52979;DHT22;51106;53.186;6.598;2022-08-01T02:01:07;17.40;99.90
52979;DHT22;51106;53.186;6.598;2022-08-01T02:03:16;17.40;99.90
52979;DHT22;51106;53.186;6.598;2022-08-01T02:05:21;17.50;99.90
52979;DHT22;51106;53.186;6.598;2022-08-01T02:07:25;17.30;99.90
52979;DHT22;51106;53.186;6.598;2022-08-01T02:09:28;17.40;99.90
52979;DHT22;51106;53.186;6.598;2022-08-01T02:11:31;17.30;99.90
52979;DHT22;51106;53.186;6.598;2022-08-01T02:13:34;17.40;99.90
52979;DHT22;51106;53.186;6.598;2022-08-01T02:15:38;17.40;99.90
52979;DHT22;51106;53.186;6.598;2022-08-01T02:18:01;17.30;99.90
52979;DHT22;51106;53.186;6.598;2022-08-01T02:20:04;17.30;99.90
52979;DHT22;51106;53.186;6.598;2022-08-01T02:22:30;17.30;99.90
52979;DHT22;51106;53.186;6.598;2022-08-01T02:27:17;17.30;99.90
52979;DHT22;51106;53.186;6.598;2022-08-01T02:29:26;17.30;99.90
52979;DHT22;51106;53.186;6.598;2022-08-01T02:31:32;17.30;99.90
52979;DHT22;51106;53.186;6.598;2022-08-01T02:33:43;17.30;99.90
52979;DHT22;51106;53.186;6.598;2022-08-01T02:35:50;17.30;99.90
52979;DHT22;51106;53.186;6.598;2022-08-01T02:38:17;17.30;99.90
52979;DHT22;51106;53.186;6.598;2022-08-01T02:40:21;17.30;99.90
52979;DHT22;51106;53.186;6.598;2022-08-01T02:42:25;17.30;99.90
52979;DHT22;51106;53.186;6.598;2022-08-01T02:44:31;17.30;99.90
52979;DHT22;51106;53.186;6.598;2022-08-01T02:46:56;17.20;99.90
52979;DHT22;51106;53.186;6.598;2022-08-01T02:49:01;17.30;99.90
52979;DHT22;51106;53.186;6.598;2022-08-01T02:51:06;17.30;99.90
52979;DHT22;51106;53.186;6.598;2022-08-01T02:53:11;17.50;99.90
52979;DHT22;51106;53.186;6.598;2022-08-01T02:55:14;17.20;99.90
52979;DHT22;51106;53.186;6.598;2022-08-01T02:57:18;17.20;99.90
52979;DHT22;51106;53.186;6.598;2022-08-01T02:59:23;17.20;99.90
52979;DHT22;51106;53.186;6.598;2022-08-01T03:01:27;17.20;99.90
52979;DHT22;51106;53.186;6.598;2022-08-01T03:03:33;17.20;99.90
52979;DHT22;51106;53.186;6.598;2022-08-01T03:05:37;17.40;99.90
52979;DHT22;51106;53.186;6.598;2022-08-01T03:07:45;17.10;99.90
52979;DHT22;51106;53.186;6.598;2022-08-01T03:09:52;17.10;99.90
52979;DHT22;51106;53.186;6.598;2022-08-01T03:11:57;17.10;99.90
52979;DHT22;51106;53.186;6.598;2022-08-01T03:14:04;17.10;99.90
52979;DHT22;51106;53.186;6.598;2022-08-01T03:16:08;17.40;99.90
52979;DHT22;51106;53.186;6.598;2022-08-01T03:18:14;17.00;99.90
52979;DHT22;51106;53.186;6.598;2022-08-01T03:20:19;17.00;99.90
52979;DHT22;51106;53.186;6.598;2022-08-01T03:22:24;17.00;99.90
52979;DHT22;51106;53.186;6.598;2022-08-01T03:24:28;16.90;99.90
52979;DHT22;51106;53.186;6.598;2022-08-01T03:26:32;16.90;99.90
52979;DHT22;51106;53.186;6.598;2022-08-01T03:28:36;16.90;99.90
52979;DHT22;51106;53.186;6.598;2022-08-01T03:30:41;16.90;99.90
52979;DHT22;51106;53.186;6.598;2022-08-01T03:32:44;17.30;99.90
52979;DHT22;51106;53.186;6.598;2022-08-01T03:34:47;16.80;99.90
52979;DHT22;51106;53.186;6.598;2022-08-01T03:37:12;16.80;99.90
52979;DHT22;51106;53.186;6.598;2022-08-01T03:39:17;16.80;99.90
52979;DHT22;51106;53.186;6.598;2022-08-01T03:41:24;16.80;99.90
52979;DHT22;51106;53.186;6.598;2022-08-01T03:43:37;16.70;99.90
52979;DHT22;51106;53.186;6.598;2022-08-01T03:45:48;16.70;99.90
52979;DHT22;51106;53.186;6.598;2022-08-01T03:48:00;16.70;99.90
52979;DHT22;51106;53.186;6.598;2022-08-01T03:50:06;16.70;99.90
52979;DHT22;51106;53.186;6.598;2022-08-01T03:52:16;16.60;99.90
52979;DHT22;51106;53.186;6.598;2022-08-01T03:54:23;17.00;99.90
52979;DHT22;51106;53.186;6.598;2022-08-01T03:56:27;16.60;99.90
52979;DHT22;51106;53.186;6.598;2022-08-01T03:58:33;16.60;99.90
52979;DHT22;51106;53.186;6.598;2022-08-01T04:00:37;16.60;99.90
52979;DHT22;51106;53.186;6.598;2022-08-01T04:02:41;16.60;99.90
52979;DHT22;51106;53.186;6.598;2022-08-01T04:04:44;16.60;99.90
52979;DHT22;51106;53.186;6.598;2022-08-01T04:06:46;16.60;99.90
52979;DHT22;51106;53.186;6.598;2022-08-01T04:08:52;16.60;99.90
52979;DHT22;51106;53.186;6.598;2022-08-01T04:10:57;16.60;99.90
52979;DHT22;51106;53.186;6.598;2022-08-01T04:13:01;16.60;99.90
52979;DHT22;51106;53.186;6.598;2022-08-01T04:15:04;16.60;99.90
52979;DHT22;51106;53.186;6.598;2022-08-01T04:17:06;16.60;99.90
52979;DHT22;51106;53.186;6.598;2022-08-01T04:19:09;16.60;99.90
52979;DHT22;51106;53.186;6.598;2022-08-01T04:21:11;16.60;99.90
52979;DHT22;51106;53.186;6.598;2022-08-01T04:23:21;16.60;99.90
52979;DHT22;51106;53.186;6.598;2022-08-01T04:25:28;16.70;99.90
52979;DHT22;51106;53.186;6.598;2022-08-01T04:27:36;16.60;99.90
52979;DHT22;51106;53.186;6.598;2022-08-01T04:29:53;16.60;99.90
52979;DHT22;51106;53.186;6.598;2022-08-01T04:31:57;16.60;99.90
52979;DHT22;51106;53.186;6.598;2022-08-01T04:34:03;16.70;99.90
52979;DHT22;51106;53.186;6.598;2022-08-01T04:36:08;16.60;99.90
52979;DHT22;51106;53.186;6.598;2022-08-01T04:38:12;16.60;99.90
52979;DHT22;51106;53.186;6.598;2022-08-01T04:40:16;16.60;99.90
52979;DHT22;51106;53.186;6.598;2022-08-01T04:42:18;16.60;99.90
52979;DHT22;51106;53.186;6.598;2022-08-01T04:44:34;16.60;99.90
52979;DHT22;51106;53.186;6.598;2022-08-01T04:46:36;16.60;99.90
52979;DHT22;51106;53.186;6.598;2022-08-01T04:48:39;16.60;99.90
52979;DHT22;51106;53.186;6.598;2022-08-01T04:50:42;16.50;99.90
52979;DHT22;51106;53.186;6.598;2022-08-01T04:52:45;16.50;99.90
52979;DHT22;51106;53.186;6.598;2022-08-01T04:54:47;16.50;99.90
52979;DHT22;51106;53.186;6.598;2022-08-01T04:56:49;16.50;99.90
52979;DHT22;51106;53.186;6.598;2022-08-01T04:58:52;16.40;99.90
52979;DHT22;51106;53.186;6.598;2022-08-01T05:01:21;16.50;99.90
52979;DHT22;51106;53.186;6.598;2022-08-01T05:03:23;16.50;99.90
52979;DHT22;51106;53.186;6.598;2022-08-01T05:05:25;16.50;99.90
52979;DHT22;51106;53.186;6.598;2022-08-01T05:07:28;16.80;99.90
52979;DHT22;51106;53.186;6.598;2022-08-01T05:09:30;16.50;99.90
52979;DHT22;51106;53.186;6.598;2022-08-01T05:11:32;16.80;99.90
52979;DHT22;51106;53.186;6.598;2022-08-01T05:13:34;16.50;99.90
52979;DHT22;51106;53.186;6.598;2022-08-01T05:15:36;16.50;99.90
52979;DHT22;51106;53.186;6.598;2022-08-01T05:17:38;16.50;99.90
52979;DHT22;51106;53.186;6.598;2022-08-01T05:19:40;16.50;99.90
52979;DHT22;51106;53.186;6.598;2022-08-01T05:21:43;16.50;99.90
52979;DHT22;51106;53.186;6.598;2022-08-01T05:23:50;16.50;99.90
52979;DHT22;51106;53.186;6.598;2022-08-01T05:25:58;16.50;99.90
52979;DHT22;51106;53.186;6.598;2022-08-01T05:28:00;16.50;99.90
52979;DHT22;51106;53.186;6.598;2022-08-01T05:30:02;16.50;99.90
52979;DHT22;51106;53.186;6.598;2022-08-01T05:32:05;16.50;99.90
52979;DHT22;51106;53.186;6.598;2022-08-01T05:34:07;16.50;99.90
52979;DHT22;51106;53.186;6.598;2022-08-01T05:36:16;16.60;99.90
52979;DHT22;51106;53.186;6.598;2022-08-01T05:38:18;16.50;99.90
52979;DHT22;51106;53.186;6.598;2022-08-01T05:40:20;16.50;99.90
52979;DHT22;51106;53.186;6.598;2022-08-01T05:42:22;16.50;99.90
52979;DHT22;51106;53.186;6.598;2022-08-01T05:44:26;16.50;99.90
52979;DHT22;51106;53.186;6.598;2022-08-01T05:46:28;16.40;99.90
52979;DHT22;51106;53.186;6.598;2022-08-01T05:48:32;16.50;99.90
52979;DHT22;51106;53.186;6.598;2022-08-01T05:50:54;16.60;99.90
52979;DHT22;51106;53.186;6.598;2022-08-01T05:53:00;16.50;99.90
52979;DHT22;51106;53.186;6.598;2022-08-01T05:55:03;16.50;99.90
52979;DHT22;51106;53.186;6.598;2022-08-01T05:57:05;16.50;99.90
52979;DHT22;51106;53.186;6.598;2022-08-01T05:59:07;16.60;99.90
52979;DHT22;51106;53.186;6.598;2022-08-01T06:01:09;16.60;99.90
52979;DHT22;51106;53.186;6.598;2022-08-01T06:03:12;16.60;99.90
52979;DHT22;51106;53.186;6.598;2022-08-01T06:05:16;16.60;99.90
52979;DHT22;51106;53.186;6.598;2022-08-01T06:07:18;17.00;99.90
52979;DHT22;51106;53.186;6.598;2022-08-01T06:09:20;16.60;99.90
52979;DHT22;51106;53.186;6.598;2022-08-01T06:11:22;16.50;99.90
52979;DHT22;51106;53.186;6.598;2022-08-01T06:13:24;16.50;99.90
52979;DHT22;51106;53.186;6.598;2022-08-01T06:15:26;16.60;99.90
52979;DHT22;51106;53.186;6.598;2022-08-01T06:17:28;16.60;99.90
52979;DHT22;51106;53.186;6.598;2022-08-01T06:19:31;16.60;99.90
52979;DHT22;51106;53.186;6.598;2022-08-01T06:21:33;16.60;99.90
52979;DHT22;51106;53.186;6.598;2022-08-01T06:23:35;16.60;99.90
52979;DHT22;51106;53.186;6.598;2022-08-01T06:25:38;16.60;99.90
52979;DHT22;51106;53.186;6.598;2022-08-01T06:27:40;16.50;99.90
52979;DHT22;51106;53.186;6.598;2022-08-01T06:29:42;16.60;99.90
52979;DHT22;51106;53.186;6.598;2022-08-01T06:31:54;16.60;99.90
52979;DHT22;51106;53.186;6.598;2022-08-01T06:33:56;16.60;99.90
52979;DHT22;51106;53.186;6.598;2022-08-01T06:36:00;16.60;99.90
52979;DHT22;51106;53.186;6.598;2022-08-01T06:38:02;16.90;99.90
52979;DHT22;51106;53.186;6.598;2022-08-01T06:40:09;16.60;99.90
52979;DHT22;51106;53.186;6.598;2022-08-01T06:42:17;16.60;99.90
52979;DHT22;51106;53.186;6.598;2022-08-01T06:44:19;16.60;99.90
52979;DHT22;51106;53.186;6.598;2022-08-01T06:46:21;16.60;99.90
52979;DHT22;51106;53.186;6.598;2022-08-01T06:48:23;16.60;99.90
52979;DHT22;51106;53.186;6.598;2022-08-01T06:50:26;16.30;99.90
52979;DHT22;51106;53.186;6.598;2022-08-01T06:52:28;16.60;99.90
52979;DHT22;51106;53.186;6.598;2022-08-01T06:54:31;16.60;99.90
52979;DHT22;51106;53.186;6.598;2022-08-01T06:56:33;16.60;99.90
52979;DHT22;51106;53.186;6.598;2022-08-01T06:58:37;16.60;99.90
52979;DHT22;51106;53.186;6.598;2022-08-01T07:00:39;17.00;99.90
52979;DHT22;51106;53.186;6.598;2022-08-01T07:02:43;16.70;99.90
52979;DHT22;51106;53.186;6.598;2022-08-01T07:04:46;17.00;99.90
52979;DHT22;51106;53.186;6.598;2022-08-01T07:06:48;16.80;99.90
52979;DHT22;51106;53.186;6.598;2022-08-01T07:08:51;16.80;99.90
52979;DHT22;51106;53.186;6.598;2022-08-01T07:10:53;16.90;99.90
52979;DHT22;51106;53.186;6.598;2022-08-01T07:12:56;16.90;99.90
52979;DHT22;51106;53.186;6.598;2022-08-01T07:14:58;17.30;99.90
52979;DHT22;51106;53.186;6.598;2022-08-01T07:17:00;17.00;99.90
52979;DHT22;51106;53.186;6.598;2022-08-01T07:19:02;17.10;99.90
52979;DHT22;51106;53.186;6.598;2022-08-01T07:21:04;17.10;99.90
52979;DHT22;51106;53.186;6.598;2022-08-01T07:23:28;17.20;99.90
52979;DHT22;51106;53.186;6.598;2022-08-01T07:25:37;17.20;99.90
52979;DHT22;51106;53.186;6.598;2022-08-01T07:27:39;17.30;99.90
52979;DHT22;51106;53.186;6.598;2022-08-01T07:29:43;17.30;99.90
52979;DHT22;51106;53.186;6.598;2022-08-01T07:31:45;17.30;99.90
52979;DHT22;51106;53.186;6.598;2022-08-01T07:33:47;17.70;99.90
52979;DHT22;51106;53.186;6.598;2022-08-01T07:35:50;17.50;99.90
52979;DHT22;51106;53.186;6.598;2022-08-01T07:37:52;17.60;99.90
52979;DHT22;51106;53.186;6.598;2022-08-01T07:39:58;17.70;99.90
52979;DHT22;51106;53.186;6.598;2022-08-01T07:42:00;17.70;99.90
52979;DHT22;51106;53.186;6.598;2022-08-01T07:44:08;17.80;99.90
52979;DHT22;51106;53.186;6.598;2022-08-01T07:46:10;17.90;99.90
52979;DHT22;51106;53.186;6.598;2022-08-01T07:48:13;17.90;99.90
52979;DHT22;51106;53.186;6.598;2022-08-01T07:50:19;18.00;99.90
52979;DHT22;51106;53.186;6.598;2022-08-01T07:52:21;18.40;99.90
52979;DHT22;51106;53.186;6.598;2022-08-01T07:54:23;18.20;99.90
52979;DHT22;51106;53.186;6.598;2022-08-01T07:56:36;18.30;99.90
52979;DHT22;51106;53.186;6.598;2022-08-01T07:58:38;18.40;99.90
52979;DHT22;51106;53.186;6.598;2022-08-01T08:00:42;18.40;99.90
52979;DHT22;51106;53.186;6.598;2022-08-01T08:02:48;18.40;99.90
52979;DHT22;51106;53.186;6.598;2022-08-01T08:04:50;18.40;99.90
52979;DHT22;51106;53.186;6.598;2022-08-01T08:06:52;18.60;99.90
52979;DHT22;51106;53.186;6.598;2022-08-01T08:08:55;18.70;99.90
52979;DHT22;51106;53.186;6.598;2022-08-01T08:10:57;18.80;99.90
52979;DHT22;51106;53.186;6.598;2022-08-01T08:13:01;18.90;99.90
52979;DHT22;51106;53.186;6.598;2022-08-01T08:15:03;19.00;99.90
52979;DHT22;51106;53.186;6.598;2022-08-01T08:17:07;19.10;99.90
52979;DHT22;51106;53.186;6.598;2022-08-01T08:19:10;19.30;99.90
52979;DHT22;51106;53.186;6.598;2022-08-01T08:21:12;19.40;99.90
52979;DHT22;51106;53.186;6.598;2022-08-01T08:23:14;19.20;99.90
52979;DHT22;51106;53.186;6.598;2022-08-01T08:25:44;19.00;99.90
52979;DHT22;51106;53.186;6.598;2022-08-01T08:27:46;18.80;99.90
52979;DHT22;51106;53.186;6.598;2022-08-01T08:29:48;18.60;99.90
52979;DHT22;51106;53.186;6.598;2022-08-01T08:31:53;18.50;99.90
52979;DHT22;51106;53.186;6.598;2022-08-01T08:33:58;18.40;99.90
52979;DHT22;51106;53.186;6.598;2022-08-01T08:36:03;18.60;99.90
52979;DHT22;51106;53.186;6.598;2022-08-01T08:38:08;18.70;99.90
52979;DHT22;51106;53.186;6.598;2022-08-01T08:40:12;19.30;99.90
52979;DHT22;51106;53.186;6.598;2022-08-01T08:42:14;19.10;99.90
52979;DHT22;51106;53.186;6.598;2022-08-01T08:44:17;19.20;99.90
52979;DHT22;51106;53.186;6.598;2022-08-01T08:46:21;19.30;99.50
52979;DHT22;51106;53.186;6.598;2022-08-01T08:48:29;19.20;99.00
52979;DHT22;51106;53.186;6.598;2022-08-01T08:50:32;19.00;99.00
52979;DHT22;51106;53.186;6.598;2022-08-01T08:52:38;19.10;99.10
52979;DHT22;51106;53.186;6.598;2022-08-01T08:54:41;19.40;99.30
52979;DHT22;51106;53.186;6.598;2022-08-01T08:56:44;19.30;99.00
52979;DHT22;51106;53.186;6.598;2022-08-01T08:58:48;19.50;99.40
52979;DHT22;51106;53.186;6.598;2022-08-01T09:00:50;19.60;98.70
52979;DHT22;51106;53.186;6.598;2022-08-01T09:02:53;19.50;98.20
52979;DHT22;51106;53.186;6.598;2022-08-01T09:05:00;19.60;98.70
52979;DHT22;51106;53.186;6.598;2022-08-01T09:07:04;19.70;98.30
52979;DHT22;51106;53.186;6.598;2022-08-01T09:09:07;19.80;97.00
52979;DHT22;51106;53.186;6.598;2022-08-01T09:11:10;19.80;94.90
52979;DHT22;51106;53.186;6.598;2022-08-01T09:13:24;19.70;95.00
52979;DHT22;51106;53.186;6.598;2022-08-01T09:15:42;19.80;95.30
52979;DHT22;51106;53.186;6.598;2022-08-01T09:17:45;19.90;96.40
52979;DHT22;51106;53.186;6.598;2022-08-01T09:21:58;19.70;95.00
52979;DHT22;51106;53.186;6.598;2022-08-01T09:24:00;19.70;95.30
52979;DHT22;51106;53.186;6.598;2022-08-01T09:26:07;19.80;95.30
52979;DHT22;51106;53.186;6.598;2022-08-01T09:28:10;19.90;95.10
52979;DHT22;51106;53.186;6.598;2022-08-01T09:30:16;20.00;94.90
52979;DHT22;51106;53.186;6.598;2022-08-01T09:32:24;20.10;94.10
52979;DHT22;51106;53.186;6.598;2022-08-01T09:34:28;20.30;93.40
52979;DHT22;51106;53.186;6.598;2022-08-01T09:36:55;20.40;93.30
52979;DHT22;51106;53.186;6.598;2022-08-01T09:39:12;20.30;90.70
52979;DHT22;51106;53.186;6.598;2022-08-01T09:41:14;20.20;90.30
52979;DHT22;51106;53.186;6.598;2022-08-01T09:43:21;20.20;92.20
52979;DHT22;51106;53.186;6.598;2022-08-01T09:45:33;20.30;91.90
52979;DHT22;51106;53.186;6.598;2022-08-01T09:47:44;20.10;92.90
52979;DHT22;51106;53.186;6.598;2022-08-01T09:49:54;20.10;92.30
52979;DHT22;51106;53.186;6.598;2022-08-01T09:52:08;20.20;92.10
52979;DHT22;51106;53.186;6.598;2022-08-01T09:54:14;20.40;91.50
52979;DHT22;51106;53.186;6.598;2022-08-01T09:56:38;20.50;91.30
52979;DHT22;51106;53.186;6.598;2022-08-01T10:01:02;20.10;89.30
52979;DHT22;51106;53.186;6.598;2022-08-01T10:03:20;19.80;90.90
52979;DHT22;51106;53.186;6.598;2022-08-01T10:05:35;20.00;91.10
52979;DHT22;51106;53.186;6.598;2022-08-01T10:07:59;20.00;91.50
52979;DHT22;51106;53.186;6.598;2022-08-01T10:10:13;20.20;90.60
52979;DHT22;51106;53.186;6.598;2022-08-01T10:12:19;20.40;90.40
52979;DHT22;51106;53.186;6.598;2022-08-01T10:14:23;20.50;90.00
52979;DHT22;51106;53.186;6.598;2022-08-01T10:16:27;20.60;88.70
52979;DHT22;51106;53.186;6.598;2022-08-01T10:18:32;20.60;86.90
52979;DHT22;51106;53.186;6.598;2022-08-01T10:20:35;20.40;85.10
52979;DHT22;51106;53.186;6.598;2022-08-01T10:22:39;20.40;84.60
52979;DHT22;51106;53.186;6.598;2022-08-01T10:24:46;20.50;86.50
52979;DHT22;51106;53.186;6.598;2022-08-01T10:26:51;20.70;85.90
52979;DHT22;51106;53.186;6.598;2022-08-01T10:28:54;20.70;85.10
52979;DHT22;51106;53.186;6.598;2022-08-01T10:30:57;20.70;83.60
52979;DHT22;51106;53.186;6.598;2022-08-01T10:33:01;20.70;83.90
52979;DHT22;51106;53.186;6.598;2022-08-01T10:35:07;20.70;83.70
52979;DHT22;51106;53.186;6.598;2022-08-01T10:37:16;20.50;83.40
52979;DHT22;51106;53.186;6.598;2022-08-01T10:39:19;20.40;84.00
52979;DHT22;51106;53.186;6.598;2022-08-01T10:41:24;20.20;81.30
52979;DHT22;51106;53.186;6.598;2022-08-01T10:43:28;20.10;81.30
52979;DHT22;51106;53.186;6.598;2022-08-01T10:45:36;20.20;81.80
52979;DHT22;51106;53.186;6.598;2022-08-01T10:47:45;20.40;81.80
52979;DHT22;51106;53.186;6.598;2022-08-01T10:52:16;20.70;81.90
52979;DHT22;51106;53.186;6.598;2022-08-01T10:54:24;20.70;81.40
52979;DHT22;51106;53.186;6.598;2022-08-01T10:56:39;20.70;79.10
52979;DHT22;51106;53.186;6.598;2022-08-01T10:58:46;20.60;79.70
52979;DHT22;51106;53.186;6.598;2022-08-01T11:01:25;20.50;80.20
52979;DHT22;51106;53.186;6.598;2022-08-01T11:03:55;20.60;81.20
52979;DHT22;51106;53.186;6.598;2022-08-01T11:06:03;20.70;80.70
52979;DHT22;51106;53.186;6.598;2022-08-01T11:08:22;20.60;79.20
52979;DHT22;51106;53.186;6.598;2022-08-01T11:10:38;20.60;79.60
52979;DHT22;51106;53.186;6.598;2022-08-01T11:12:42;20.60;80.00
52979;DHT22;51106;53.186;6.598;2022-08-01T11:22:15;20.40;77.60
52979;DHT22;51106;53.186;6.598;2022-08-01T11:29:24;20.60;74.20
52979;DHT22;51106;53.186;6.598;2022-08-01T11:31:28;20.40;77.70
52979;DHT22;51106;53.186;6.598;2022-08-01T11:38:25;20.30;77.40
52979;DHT22;51106;53.186;6.598;2022-08-01T11:40:37;20.30;75.60
52979;DHT22;51106;53.186;6.598;2022-08-01T11:42:39;20.20;75.90
52979;DHT22;51106;53.186;6.598;2022-08-01T11:44:48;20.40;76.00
52979;DHT22;51106;53.186;6.598;2022-08-01T11:49:22;20.70;76.00
52979;DHT22;51106;53.186;6.598;2022-08-01T11:51:25;20.90;73.60
52979;DHT22;51106;53.186;6.598;2022-08-01T11:53:30;20.90;72.80
52979;DHT22;51106;53.186;6.598;2022-08-01T11:55:37;20.70;71.90
52979;DHT22;51106;53.186;6.598;2022-08-01T11:58:03;20.70;73.10
52979;DHT22;51106;53.186;6.598;2022-08-01T12:00:17;20.60;68.30
52979;DHT22;51106;53.186;6.598;2022-08-01T12:04:48;20.70;72.20
52979;DHT22;51106;53.186;6.598;2022-08-01T12:06:51;20.90;72.40
52979;DHT22;51106;53.186;6.598;2022-08-01T12:08:54;21.00;69.90
52979;DHT22;51106;53.186;6.598;2022-08-01T12:10:56;21.00;70.60
52979;DHT22;51106;53.186;6.598;2022-08-01T12:13:05;21.00;70.30
52979;DHT22;51106;53.186;6.598;2022-08-01T12:15:09;21.00;68.60
52979;DHT22;51106;53.186;6.598;2022-08-01T12:17:11;21.10;67.40
52979;DHT22;51106;53.186;6.598;2022-08-01T12:19:24;21.00;66.40
52979;DHT22;51106;53.186;6.598;2022-08-01T12:21:26;21.00;68.10
52979;DHT22;51106;53.186;6.598;2022-08-01T12:23:31;21.10;68.40
52979;DHT22;51106;53.186;6.598;2022-08-01T12:25:34;21.00;67.30
52979;DHT22;51106;53.186;6.598;2022-08-01T12:27:38;21.00;68.60
52979;DHT22;51106;53.186;6.598;2022-08-01T12:29:42;21.10;67.90
52979;DHT22;51106;53.186;6.598;2022-08-01T12:31:46;21.00;64.40
52979;DHT22;51106;53.186;6.598;2022-08-01T12:33:48;21.00;67.20
52979;DHT22;51106;53.186;6.598;2022-08-01T12:35:51;21.00;69.00
52979;DHT22;51106;53.186;6.598;2022-08-01T12:38:06;21.10;68.40
52979;DHT22;51106;53.186;6.598;2022-08-01T12:42:24;21.40;68.40
52979;DHT22;51106;53.186;6.598;2022-08-01T12:44:30;21.40;65.20
52979;DHT22;51106;53.186;6.598;2022-08-01T12:46:32;21.50;62.70
52979;DHT22;51106;53.186;6.598;2022-08-01T12:48:35;21.40;61.30
52979;DHT22;51106;53.186;6.598;2022-08-01T12:50:39;21.40;59.30
52979;DHT22;51106;53.186;6.598;2022-08-01T12:52:43;21.50;60.70
52979;DHT22;51106;53.186;6.598;2022-08-01T12:57:21;21.60;60.80
52979;DHT22;51106;53.186;6.598;2022-08-01T12:59:25;21.50;59.10
52979;DHT22;51106;53.186;6.598;2022-08-01T13:01:29;21.40;61.60
52979;DHT22;51106;53.186;6.598;2022-08-01T13:03:31;21.30;62.90
52979;DHT22;51106;53.186;6.598;2022-08-01T13:05:42;21.10;62.90
52979;DHT22;51106;53.186;6.598;2022-08-01T13:07:49;21.20;64.20
52979;DHT22;51106;53.186;6.598;2022-08-01T13:09:53;21.10;63.30
52979;DHT22;51106;53.186;6.598;2022-08-01T13:11:55;21.10;65.00
52979;DHT22;51106;53.186;6.598;2022-08-01T13:14:28;21.10;64.50
52979;DHT22;51106;53.186;6.598;2022-08-01T13:16:31;21.20;64.70
52979;DHT22;51106;53.186;6.598;2022-08-01T13:18:54;21.20;64.90
52979;DHT22;51106;53.186;6.598;2022-08-01T13:23:16;21.00;64.70
52979;DHT22;51106;53.186;6.598;2022-08-01T13:25:52;20.80;67.60
52979;DHT22;51106;53.186;6.598;2022-08-01T13:28:16;20.80;66.40
52979;DHT22;51106;53.186;6.598;2022-08-01T13:30:19;20.80;65.80
52979;DHT22;51106;53.186;6.598;2022-08-01T13:32:22;20.90;67.20
52979;DHT22;51106;53.186;6.598;2022-08-01T13:34:32;21.00;66.40
52979;DHT22;51106;53.186;6.598;2022-08-01T13:36:35;21.10;59.80
52979;DHT22;51106;53.186;6.598;2022-08-01T13:38:37;21.00;64.00
52979;DHT22;51106;53.186;6.598;2022-08-01T13:40:58;21.00;63.80
52979;DHT22;51106;53.186;6.598;2022-08-01T13:43:00;21.00;64.70
52979;DHT22;51106;53.186;6.598;2022-08-01T13:45:04;21.10;67.10
52979;DHT22;51106;53.186;6.598;2022-08-01T13:47:15;21.20;67.40
52979;DHT22;51106;53.186;6.598;2022-08-01T13:49:33;21.30;65.70
52979;DHT22;51106;53.186;6.598;2022-08-01T13:51:41;21.40;63.20
52979;DHT22;51106;53.186;6.598;2022-08-01T13:53:43;21.50;64.10
52979;DHT22;51106;53.186;6.598;2022-08-01T13:55:47;21.50;62.20
52979;DHT22;51106;53.186;6.598;2022-08-01T13:57:50;21.50;63.70
52979;DHT22;51106;53.186;6.598;2022-08-01T13:59:52;21.40;64.00
52979;DHT22;51106;53.186;6.598;2022-08-01T14:01:55;21.30;65.00
52979;DHT22;51106;53.186;6.598;2022-08-01T14:03:57;21.10;64.50
52979;DHT22;51106;53.186;6.598;2022-08-01T14:06:01;20.90;63.60
52979;DHT22;51106;53.186;6.598;2022-08-01T14:08:03;20.60;64.30